Bea Schulte — VRGA2 — position and weather

sailwx.info

Track history (hours):
 
Tides and Currents Weather Stations Pressure Air Temp Water Temp Dewpoint Dewpoint Depression Visibility Wind Speed Wind Dir Waves Ship Positions

Bea Schulte

Last reported at 2017-Jun-25 15:43 UTC. Time now 2017-Jun-27 00:08 UTC.
Position S 24°04' W 046°06'.

Length 264 m; draft 12.7 m.

Type: Ship (hazmat cat A). MMSI: 477639500.

Date/timePositionNaut miles runAvg speedWind from/ knotsBaromVisibWave heightAir tempDewpointWater temp
2017-Jun-25 15:43S 24°04' W 046°06'311.7
2017-Jun-25 15:29S 24°04' W 046°09'511.4
2017-Jun-25 15:00S 24°05' W 046°15'7 6.5
2017-Jun-25 14:00S 23°60' W 046°19'2 3.2
2017-Jun-25 13:18S 23°58' W 046°18'0 0.0
2017-Jun-25 10:23S 23°58' W 046°18'0 0.0
2017-Jun-25 08:53S 23°58' W 046°18'0 0.0
2017-Jun-25 08:17S 23°58' W 046°18'0 0.0
2017-Jun-25 06:38S 23°58' W 046°18'0 0.0
2017-Jun-25 06:17S 23°58' W 046°18'0 0.0
2017-Jun-25 05:53S 23°58' W 046°18'0 0.0
2017-Jun-25 04:14S 23°58' W 046°18'0 0.0
2017-Jun-24 23:52S 23°58' W 046°18'0 0.0
2017-Jun-24 23:30S 23°58' W 046°18'0 0.0
2017-Jun-24 23:00S 23°58' W 046°18'0 0.0
2017-Jun-24 22:30S 23°58' W 046°18'0 0.0
2017-Jun-24 21:54S 23°58' W 046°18'0 0.0
2017-Jun-24 21:18S 23°58' W 046°18'0 0.0
2017-Jun-24 20:23S 23°58' W 046°18'0 0.0
2017-Jun-24 20:00S 23°58' W 046°18'0 0.0
2017-Jun-24 19:30S 23°58' W 046°18'0 0.0
2017-Jun-24 18:59S 23°58' W 046°18'0 0.0
2017-Jun-24 18:27S 23°58' W 046°18'0 0.0
2017-Jun-24 18:00S 23°58' W 046°18'0 0.0
2017-Jun-24 17:22S 23°58' W 046°18'0 0.7
2017-Jun-24 16:52S 23°58' W 046°18'2 5.3
2017-Jun-24 16:30S 23°60' W 046°19'4 7.6
2017-Jun-24 16:01S 24°03' W 046°21'4 8.4
2017-Jun-24 15:31S 24°06' W 046°23'510.5
2017-Jun-24 15:01S 24°11' W 046°26'1414.3
2017-Jun-24 14:01S 24°24' W 046°32'1121.3
2017-Jun-24 13:31S 24°33' W 046°38'1020.9
2017-Jun-24 13:01S 24°42' W 046°45'1020.5
2017-Jun-24 12:30S 24°49' W 046°54'  
Track history (hours):
 
Tides and Currents Weather Stations Pressure Air Temp Water Temp Dewpoint Dewpoint Depression Visibility Wind Speed Wind Dir Waves Ship Positions

Bea Schulte

Last reported at 2017-Jun-25 15:43 UTC. Time now 2017-Jun-27 00:08 UTC.
Position S 24°04' W 046°06'.

Length 264 m; draft 12.7 m.

Type: Ship (hazmat cat A). MMSI: 477639500.

Date/timePositionNaut miles runAvg speedWind from/ knotsBaromVisibWave heightAir tempDewpointWater temp
2017-Jun-25 15:43S 24°04' W 046°06'311.7
2017-Jun-25 15:29S 24°04' W 046°09'511.4
2017-Jun-25 15:00S 24°05' W 046°15'7 6.5
2017-Jun-25 14:00S 23°60' W 046°19'2 3.2
2017-Jun-25 13:18S 23°58' W 046°18'0 0.0
2017-Jun-25 10:23S 23°58' W 046°18'0 0.0
2017-Jun-25 08:53S 23°58' W 046°18'0 0.0
2017-Jun-25 08:17S 23°58' W 046°18'0 0.0
2017-Jun-25 06:38S 23°58' W 046°18'0 0.0
2017-Jun-25 06:17S 23°58' W 046°18'0 0.0
2017-Jun-25 05:53S 23°58' W 046°18'0 0.0
2017-Jun-25 04:14S 23°58' W 046°18'0 0.0
2017-Jun-24 23:52S 23°58' W 046°18'0 0.0
2017-Jun-24 23:30S 23°58' W 046°18'0 0.0
2017-Jun-24 23:00S 23°58' W 046°18'0 0.0
2017-Jun-24 22:30S 23°58' W 046°18'0 0.0
2017-Jun-24 21:54S 23°58' W 046°18'0 0.0
2017-Jun-24 21:18S 23°58' W 046°18'0 0.0
2017-Jun-24 20:23S 23°58' W 046°18'0 0.0
2017-Jun-24 20:00S 23°58' W 046°18'0 0.0
2017-Jun-24 19:30S 23°58' W 046°18'0 0.0
2017-Jun-24 18:59S 23°58' W 046°18'0 0.0
2017-Jun-24 18:27S 23°58' W 046°18'0 0.0
2017-Jun-24 18:00S 23°58' W 046°18'0 0.0
2017-Jun-24 17:22S 23°58' W 046°18'0 0.7
2017-Jun-24 16:52S 23°58' W 046°18'2 5.3
2017-Jun-24 16:30S 23°60' W 046°19'4 7.6
2017-Jun-24 16:01S 24°03' W 046°21'4 8.4
2017-Jun-24 15:31S 24°06' W 046°23'510.5
2017-Jun-24 15:01S 24°11' W 046°26'1414.3
2017-Jun-24 14:01S 24°24' W 046°32'1121.3
2017-Jun-24 13:31S 24°33' W 046°38'1020.9
2017-Jun-24 13:01S 24°42' W 046°45'1020.5
2017-Jun-24 12:30S 24°49' W 046°54'  

Dump ship's entire track history